createdAt,value
2018-05-29T00:00:00.732Z,55.12
2018-05-29T00:02:28.364Z,55.01
2018-05-29T00:04:56.430Z,55.55
2018-05-29T00:07:24.883Z,54.81
2018-05-29T00:09:53.951Z,54.88
2018-05-29T00:12:22.022Z,54.92
2018-05-29T00:14:50.156Z,55.08
2018-05-29T00:17:18.560Z,55.22
2018-05-29T00:19:46.471Z,54.88
2018-05-29T00:22:14.079Z,55.34
2018-05-29T00:24:42.669Z,55.45
2018-05-29T00:27:10.741Z,56.06
2018-05-29T00:29:38.456Z,56.20
2018-05-29T00:32:06.047Z,56.34
2018-05-29T00:34:33.625Z,56.02
2018-05-29T00:37:01.967Z,55.96
2018-05-29T00:39:29.568Z,56.98
2018-05-29T00:41:57.145Z,57.33
2018-05-29T00:44:25.022Z,57.39
2018-05-29T00:46:52.744Z,57.03
2018-05-29T00:49:20.339Z,57.47
2018-05-29T00:51:48.411Z,58.08
2018-05-29T00:54:16.660Z,57.42
2018-05-29T00:56:44.896Z,57.38
2018-05-29T00:59:12.472Z,57.38
2018-05-29T01:01:40.031Z,57.15
2018-05-29T01:04:07.618Z,58.41
2018-05-29T01:06:35.611Z,58.09
2018-05-29T01:09:03.528Z,57.83
2018-05-29T01:11:31.735Z,58.27
2018-05-29T01:13:59.845Z,58.14
2018-05-29T01:16:28.139Z,58.07
2018-05-29T01:18:56.279Z,58.09
2018-05-29T01:21:24.090Z,58.98
2018-05-29T01:23:51.722Z,59.14
2018-05-29T01:26:20.237Z,58.69
2018-05-29T01:28:47.998Z,58.95
2018-05-29T01:31:16.660Z,59.56
2018-05-29T01:33:44.954Z,59.64
2018-05-29T01:36:12.514Z,59.35
2018-05-29T01:38:40.593Z,59.25
2018-05-29T01:41:08.135Z,59.75
2018-05-29T01:43:35.696Z,59.67
2018-05-29T01:46:03.323Z,59.85
2018-05-29T01:48:30.879Z,60.17
2018-05-29T01:51:00.308Z,60.13
2018-05-29T01:53:28.686Z,60.26
2018-05-29T01:55:56.227Z,60.55
2018-05-29T01:58:24.473Z,60.56
2018-05-29T02:00:52.158Z,61.24
2018-05-29T02:03:19.728Z,60.26
2018-05-29T02:05:48.517Z,60.95
2018-05-29T02:08:16.247Z,60.86
2018-05-29T02:10:44.310Z,60.44
2018-05-29T02:13:12.447Z,60.55
2018-05-29T02:15:40.840Z,61.07
2018-05-29T02:18:08.403Z,60.72
2018-05-29T02:25:04.010Z,61.33
2018-05-29T02:27:32.359Z,61.33
2018-05-29T02:29:59.925Z,61.98
2018-05-29T02:32:28.012Z,62.01
2018-05-29T02:34:55.564Z,61.88
2018-05-29T02:37:23.645Z,62.08
2018-05-29T02:39:51.183Z,61.77
2018-05-29T02:42:18.765Z,61.81
2018-05-29T02:44:46.856Z,62.11
2018-05-29T02:47:14.608Z,61.86
2018-05-29T02:49:42.156Z,62.11
2018-05-29T02:52:10.430Z,61.73
2018-05-29T02:54:37.987Z,62.03
2018-05-29T02:57:05.536Z,61.82
2018-05-29T02:59:33.607Z,61.95
2018-05-29T03:02:01.168Z,62.03
2018-05-29T03:04:28.755Z,61.82
2018-05-29T03:06:57.076Z,61.60
2018-05-29T03:09:25.506Z,61.46
2018-05-29T03:11:53.703Z,61.31
2018-05-29T03:14:21.312Z,62.16
2018-05-29T03:16:49.480Z,61.83
2018-05-29T03:19:17.632Z,61.78
2018-05-29T03:21:45.280Z,60.76
2018-05-29T03:24:13.930Z,59.65
2018-05-29T03:26:41.939Z,58.21
2018-05-29T03:29:09.524Z,56.72
2018-05-29T03:31:37.874Z,55.39
2018-05-29T03:34:06.120Z,53.92
2018-05-29T03:36:33.845Z,52.69
2018-05-29T03:39:02.233Z,51.08
2018-05-29T03:41:29.838Z,49.74
2018-05-29T03:43:57.422Z,48.89
2018-05-29T03:46:25.014Z,47.27
2018-05-29T03:48:54.433Z,46.33
2018-05-29T03:51:22.624Z,45.63
2018-05-29T03:53:50.901Z,45.79
2018-05-29T03:56:18.483Z,45.20
2018-05-29T03:58:46.825Z,44.78
2018-05-29T04:01:14.399Z,44.66
2018-05-29T04:03:42.221Z,44.61
2018-05-29T04:06:10.877Z,44.22
2018-05-29T04:08:39.217Z,44.61
2018-05-29T04:11:07.404Z,44.67
2018-05-29T04:13:35.196Z,45.46
2018-05-29T04:16:03.374Z,46.26
2018-05-29T04:18:31.607Z,47.16
2018-05-29T04:20:59.176Z,47.99
2018-05-29T04:23:26.793Z,48.54
2018-05-29T04:25:55.830Z,49.28
2018-05-29T04:28:23.748Z,49.92
2018-05-29T04:30:51.486Z,50.22
2018-05-29T04:33:19.743Z,51.39
2018-05-29T04:35:47.862Z,51.84
2018-05-29T04:38:18.507Z,51.85
2018-05-29T04:40:46.555Z,52.85
2018-05-29T04:43:14.241Z,52.45
2018-05-29T04:45:42.328Z,53.09
2018-05-29T04:48:10.567Z,52.64
2018-05-29T04:50:38.871Z,52.58
2018-05-29T04:53:07.036Z,52.52
2018-05-29T04:55:34.605Z,53.17
2018-05-29T04:58:02.187Z,53.69
2018-05-29T05:00:30.599Z,52.93
2018-05-29T05:02:58.224Z,53.11
2018-05-29T05:05:26.941Z,52.97
2018-05-29T05:07:54.814Z,53.22
2018-05-29T05:10:23.540Z,52.46
2018-05-29T05:12:51.775Z,53.07
2018-05-29T05:15:19.970Z,53.35
2018-05-29T05:17:48.523Z,52.76
2018-05-29T05:20:17.085Z,52.46
2018-05-29T05:22:46.652Z,52.60
2018-05-29T05:25:15.530Z,52.39
2018-05-29T05:27:43.174Z,52.48
2018-05-29T05:30:10.881Z,53.10
2018-05-29T05:32:40.385Z,53.15
2018-05-29T05:35:08.358Z,52.41
2018-05-29T05:37:36.666Z,53.09
2018-05-29T05:40:04.254Z,51.46
2018-05-29T05:42:32.298Z,51.92
2018-05-29T05:45:00.666Z,51.97
2018-05-29T05:47:28.432Z,52.29
2018-05-29T05:49:56.136Z,51.36
2018-05-29T05:52:24.950Z,50.90
2018-05-29T05:54:52.573Z,50.12
2018-05-29T05:57:20.152Z,50.88
2018-05-29T05:59:48.588Z,50.11
2018-05-29T06:02:16.408Z,49.14
2018-05-29T06:04:43.963Z,48.20
2018-05-29T06:07:12.525Z,48.04
2018-05-29T06:09:41.005Z,46.18
2018-05-29T06:12:09.132Z,46.15
2018-05-29T06:14:37.562Z,47.01
2018-05-29T06:17:05.136Z,46.23
2018-05-29T06:19:32.719Z,45.27
2018-05-29T06:22:00.343Z,45.47
2018-05-29T06:24:29.941Z,45.14
2018-05-29T06:26:58.240Z,44.77
2018-05-29T06:29:26.469Z,44.31
2018-05-29T06:31:54.160Z,44.19
2018-05-29T06:34:22.358Z,44.21
2018-05-29T06:36:50.595Z,44.91
2018-05-29T06:39:18.179Z,44.97
2018-05-29T06:41:46.701Z,45.14
2018-05-29T06:44:14.266Z,44.92
2018-05-29T06:46:41.830Z,44.76
2018-05-29T06:49:09.385Z,45.01
2018-05-29T06:51:37.416Z,43.49
2018-05-29T06:54:05.016Z,43.59
2018-05-29T06:56:32.580Z,43.41
2018-05-29T06:59:00.870Z,43.20
2018-05-29T07:01:28.442Z,42.34
2018-05-29T07:03:55.992Z,43.03
2018-05-29T07:06:25.174Z,42.65
2018-05-29T07:08:52.907Z,42.97
2018-05-29T07:11:20.850Z,42.35
2018-05-29T07:13:48.536Z,42.32
2018-05-29T07:16:16.960Z,42.20
2018-05-29T07:18:44.522Z,43.25
2018-05-29T07:21:12.058Z,42.64
2018-05-29T07:23:39.675Z,40.74
2018-05-29T07:26:08.065Z,41.81
2018-05-29T07:28:35.691Z,42.06
2018-05-29T07:31:03.269Z,41.87
2018-05-29T07:33:31.505Z,41.51
2018-05-29T07:35:59.079Z,41.75
2018-05-29T07:38:27.160Z,40.75
2018-05-29T07:40:55.375Z,39.54
2018-05-29T07:43:23.118Z,39.55
2018-05-29T07:45:50.660Z,39.40
2018-05-29T07:48:18.241Z,40.41
2018-05-29T07:50:47.364Z,40.35
2018-05-29T07:53:15.600Z,40.15
2018-05-29T07:55:43.279Z,39.43
2018-05-29T07:58:10.872Z,39.77
2018-05-29T08:00:39.321Z,39.90
2018-05-29T08:03:06.914Z,39.59
2018-05-29T08:05:35.425Z,38.35
2018-05-29T08:08:03.032Z,39.18
2018-05-29T08:10:31.385Z,39.21
2018-05-29T08:12:58.958Z,38.87
2018-05-29T08:15:27.066Z,39.35
2018-05-29T08:17:54.628Z,39.33
2018-05-29T08:20:22.372Z,39.51
2018-05-29T08:22:49.958Z,39.74
2018-05-29T08:25:18.820Z,39.45
2018-05-29T08:27:46.740Z,39.24
2018-05-29T08:30:14.299Z,39.36
2018-05-29T08:32:42.423Z,39.19
2018-05-29T08:35:09.983Z,39.84
2018-05-29T08:37:38.009Z,39.87
2018-05-29T08:40:05.574Z,40.85
2018-05-29T08:42:33.156Z,39.54
2018-05-29T08:45:00.717Z,39.35
2018-05-29T08:47:28.274Z,39.37
2018-05-29T08:49:55.827Z,39.52
2018-05-29T08:52:24.416Z,38.72
2018-05-29T08:54:51.952Z,38.85
2018-05-29T08:57:19.508Z,38.47
2018-05-29T08:59:47.981Z,38.06
2018-05-29T09:02:15.567Z,39.02
2018-05-29T09:04:43.149Z,38.20
2018-05-29T09:07:11.275Z,38.81
2018-05-29T09:09:39.395Z,39.34
2018-05-29T09:12:06.939Z,38.69
2018-05-29T09:14:35.272Z,38.01
2018-05-29T09:17:02.881Z,38.46
2018-05-29T09:19:30.561Z,38.57
2018-05-29T09:21:58.128Z,38.10
2018-05-29T09:24:26.286Z,38.08
2018-05-29T09:26:54.611Z,38.20
2018-05-29T09:29:22.329Z,37.91
2018-05-29T09:31:50.045Z,37.95
2018-05-29T09:34:18.126Z,36.67
2018-05-29T09:36:46.625Z,37.46
2018-05-29T09:39:14.178Z,37.31
2018-05-29T09:41:41.972Z,36.24
2018-05-29T09:44:09.610Z,36.61
2018-05-29T09:46:37.521Z,37.27
2018-05-29T09:49:05.164Z,36.65
2018-05-29T09:51:33.448Z,36.42
2018-05-29T09:54:00.997Z,35.97
2018-05-29T09:56:28.584Z,34.98
2018-05-29T09:58:56.860Z,35.40
2018-05-29T10:01:24.631Z,35.98
2018-05-29T10:03:52.342Z,35.29
2018-05-29T10:06:20.669Z,34.89
2018-05-29T10:08:48.325Z,34.96
2018-05-29T10:11:16.849Z,34.09
2018-05-29T10:13:44.420Z,34.34
2018-05-29T10:16:12.497Z,34.05
2018-05-29T10:18:40.050Z,33.72
2018-05-29T10:21:07.720Z,34.02
2018-05-29T10:23:35.308Z,33.81
2018-05-29T10:26:03.441Z,33.53
2018-05-29T10:28:37.054Z,33.44
2018-05-29T10:31:04.837Z,31.60
2018-05-29T10:33:32.974Z,32.36
2018-05-29T10:36:00.571Z,32.59
2018-05-29T10:38:28.999Z,32.74
2018-05-29T10:40:56.715Z,32.97
2018-05-29T10:43:24.333Z,31.72
2018-05-29T10:45:51.887Z,30.23
2018-05-29T10:48:19.547Z,31.39
2018-05-29T10:50:48.748Z,30.91
2018-05-29T10:53:17.525Z,31.29
2018-05-29T10:55:45.096Z,31.76
2018-05-29T10:58:12.648Z,31.43
2018-05-29T11:00:40.879Z,30.21
2018-05-29T11:03:08.417Z,30.48
2018-05-29T11:05:36.888Z,30.74
2018-05-29T11:08:04.483Z,30.17
2018-05-29T11:10:32.615Z,31.25
2018-05-29T11:13:00.164Z,31.06
2018-05-29T11:15:28.369Z,30.63
2018-05-29T11:17:55.932Z,31.16
2018-05-29T11:20:23.765Z,31.35
2018-05-29T11:22:51.447Z,31.56
2018-05-29T11:25:19.623Z,30.52
2018-05-29T11:27:47.923Z,31.01
2018-05-29T11:30:16.351Z,30.72
2018-05-29T11:32:44.777Z,31.81
2018-05-29T11:35:12.406Z,31.35
2018-05-29T11:37:40.497Z,32.30
2018-05-29T11:40:08.074Z,33.41
2018-05-29T11:42:36.455Z,33.28
2018-05-29T11:45:04.049Z,33.41
2018-05-29T11:47:31.619Z,33.13
2018-05-29T11:49:59.219Z,32.88
2018-05-29T11:52:27.655Z,32.66
2018-05-29T11:54:55.291Z,33.26
2018-05-29T11:57:23.104Z,33.30
2018-05-29T11:59:51.136Z,32.49
2018-05-29T12:02:18.711Z,33.16
2018-05-29T12:04:46.768Z,32.38
2018-05-29T12:07:14.979Z,32.50
2018-05-29T12:09:43.039Z,32.93
2018-05-29T12:12:22.528Z,32.79
2018-05-29T12:14:50.961Z,32.90
2018-05-29T12:17:18.529Z,32.80
2018-05-29T12:19:46.636Z,32.71
2018-05-29T12:22:14.262Z,32.77
2018-05-29T12:24:42.534Z,33.05
2018-05-29T12:27:10.766Z,32.76
2018-05-29T12:29:38.327Z,32.48
2018-05-29T12:32:06.477Z,32.30
2018-05-29T12:34:34.407Z,32.30
2018-05-29T12:37:02.736Z,32.61
2018-05-29T12:39:30.611Z,32.49
2018-05-29T12:41:58.176Z,32.04
2018-05-29T12:44:25.802Z,31.64
2018-05-29T12:46:53.589Z,31.98
2018-05-29T12:49:21.149Z,32.04
2018-05-29T12:51:49.344Z,32.03
2018-05-29T12:54:17.321Z,31.82
2018-05-29T12:56:44.879Z,32.18
2018-05-29T12:59:13.139Z,31.65
2018-05-29T13:01:40.723Z,31.85
2018-05-29T13:04:08.380Z,30.77
2018-05-29T13:06:36.240Z,31.40
2018-05-29T13:09:04.527Z,31.57
2018-05-29T13:11:32.645Z,31.59
2018-05-29T13:14:00.207Z,31.79
2018-05-29T13:16:28.321Z,31.79
2018-05-29T13:18:56.112Z,31.29
2018-05-29T13:21:23.844Z,30.80
2018-05-29T13:23:52.095Z,31.33
2018-05-29T13:26:20.359Z,31.00
2018-05-29T13:28:47.916Z,30.78
2018-05-29T13:31:15.671Z,31.01
2018-05-29T13:33:43.824Z,31.20
2018-05-29T13:36:11.555Z,30.51
2018-05-29T13:38:39.635Z,30.70
2018-05-29T13:41:07.359Z,30.55
2018-05-29T13:43:34.928Z,31.05
2018-05-29T13:46:02.712Z,30.41
2018-05-29T13:48:30.271Z,30.03
2018-05-29T13:50:58.655Z,30.12
2018-05-29T13:53:26.792Z,29.25
2018-05-29T13:55:54.838Z,30.07
2018-05-29T13:58:23.149Z,30.10
2018-05-29T14:00:51.144Z,30.50
2018-05-29T14:03:18.732Z,29.94
2018-05-29T14:05:46.987Z,30.43
2018-05-29T14:08:14.596Z,29.95
2018-05-29T14:10:42.641Z,29.33
2018-05-29T14:13:10.585Z,29.47
2018-05-29T14:15:38.985Z,29.63
2018-05-29T14:18:06.759Z,29.71
2018-05-29T14:20:34.305Z,29.34
2018-05-29T14:23:02.808Z,27.90
2018-05-29T14:25:31.347Z,28.23
2018-05-29T14:27:58.945Z,27.60
2018-05-29T14:30:26.532Z,28.18
2018-05-29T14:32:54.719Z,27.75
2018-05-29T14:35:22.404Z,27.90
2018-05-29T14:37:50.284Z,28.17
2018-05-29T14:40:19.030Z,28.22
2018-05-29T14:42:46.922Z,27.97
2018-05-29T14:45:14.579Z,28.02
2018-05-29T14:47:42.142Z,27.79
2018-05-29T14:50:09.748Z,27.88
2018-05-29T14:52:38.478Z,28.21
2018-05-29T14:55:06.025Z,27.85
2018-05-29T14:57:33.692Z,27.84
2018-05-29T15:00:02.116Z,27.42
2018-05-29T15:02:29.700Z,27.08
2018-05-29T15:04:57.978Z,27.85
2018-05-29T15:07:25.543Z,27.37
2018-05-29T15:09:53.700Z,28.04
2018-05-29T15:12:21.267Z,27.96
2018-05-29T15:14:49.262Z,28.89
2018-05-29T15:17:16.865Z,28.92
2018-05-29T15:19:45.170Z,27.84
2018-05-29T15:22:12.768Z,27.44
2018-05-29T15:24:40.829Z,26.00
2018-05-29T15:27:08.952Z,26.35
2018-05-29T15:29:36.843Z,25.71
2018-05-29T15:32:05.192Z,24.64
2018-05-29T15:34:32.751Z,23.33
2018-05-29T15:37:00.731Z,23.59
2018-05-29T15:39:28.268Z,22.27
2018-05-29T15:41:55.799Z,22.09
2018-05-29T15:44:23.662Z,21.52
2018-05-29T15:46:51.219Z,21.09
2018-05-29T15:49:18.756Z,21.64
2018-05-29T15:51:47.392Z,20.29
2018-05-29T15:54:14.931Z,20.54
2018-05-29T15:56:42.485Z,19.73
2018-05-29T15:59:10.786Z,19.68
2018-05-29T16:01:38.426Z,19.67
2018-05-29T16:04:05.972Z,19.40
2018-05-29T16:06:34.030Z,20.34
2018-05-29T16:09:01.578Z,19.46
2018-05-29T16:11:29.756Z,20.12
2018-05-29T16:13:57.325Z,19.73
2018-05-29T16:16:25.286Z,20.17
2018-05-29T16:18:53.665Z,19.65
2018-05-29T16:21:21.199Z,19.87
2018-05-29T16:23:49.347Z,20.00
2018-05-29T16:26:17.976Z,19.82
2018-05-29T16:28:45.624Z,19.84
2018-05-29T16:31:13.206Z,19.39
2018-05-29T16:33:42.560Z,20.28
2018-05-29T16:36:10.136Z,21.11
2018-05-29T16:38:38.185Z,21.42
2018-05-29T16:41:05.799Z,21.73
2018-05-29T16:43:33.363Z,22.19
2018-05-29T16:46:01.010Z,21.97
2018-05-29T16:48:28.570Z,21.62
2018-05-29T16:50:56.871Z,22.25
2018-05-29T16:53:25.081Z,22.51
2018-05-29T16:55:52.899Z,22.70
2018-05-29T16:58:20.446Z,22.13
2018-05-29T17:00:48.494Z,22.07
2018-05-29T17:03:16.491Z,22.23
2018-05-29T17:05:44.791Z,21.81
2018-05-29T17:08:12.327Z,21.75
2018-05-29T17:10:40.578Z,21.81
2018-05-29T17:13:08.135Z,21.94
2018-05-29T17:15:36.211Z,22.10
2018-05-29T17:18:03.799Z,22.07
2018-05-29T17:20:31.361Z,22.04
2018-05-29T17:22:58.930Z,22.02
2018-05-29T17:25:27.294Z,21.44
2018-05-29T17:27:54.827Z,21.43
2018-05-29T17:30:22.499Z,21.46
2018-05-29T17:32:50.720Z,21.56
2018-05-29T17:35:18.266Z,21.77
2018-05-29T17:37:46.859Z,22.07
2018-05-29T17:40:14.415Z,21.83
2018-05-29T17:42:41.992Z,21.92
2018-05-29T17:45:09.571Z,22.23
2018-05-29T17:47:37.125Z,22.15
2018-05-29T17:50:04.713Z,22.27
2018-05-29T17:52:33.161Z,22.30
2018-05-29T17:55:00.707Z,22.70
2018-05-29T17:57:28.282Z,22.47
2018-05-29T17:59:56.708Z,22.74
2018-05-29T18:02:24.424Z,23.03
2018-05-29T18:04:51.979Z,22.90
2018-05-29T18:07:20.371Z,23.20
2018-05-29T18:09:48.798Z,23.39
2018-05-29T18:12:16.707Z,23.21
2018-05-29T18:14:44.731Z,23.19
2018-05-29T18:17:12.933Z,23.44
2018-05-29T18:19:40.471Z,23.41
2018-05-29T18:22:08.700Z,23.33
2018-05-29T18:24:37.003Z,23.52
2018-05-29T18:27:05.162Z,23.78
2018-05-29T18:29:32.702Z,24.30
2018-05-29T18:32:01.131Z,24.44
2018-05-29T18:34:28.988Z,24.96
2018-05-29T18:36:57.170Z,25.70
2018-05-29T18:39:24.729Z,26.59
2018-05-29T18:41:52.628Z,27.33
2018-05-29T18:44:20.217Z,27.92
2018-05-29T18:46:47.922Z,29.01
2018-05-29T18:49:15.664Z,29.52
2018-05-29T18:51:43.911Z,30.27
2018-05-29T18:54:11.468Z,30.37
2018-05-29T18:56:39.018Z,31.10
2018-05-29T18:59:07.187Z,32.18
2018-05-29T19:01:34.762Z,32.69
2018-05-29T19:04:02.378Z,33.33
2018-05-29T19:06:30.510Z,33.80
2018-05-29T19:08:58.055Z,33.87
2018-05-29T19:11:26.177Z,34.40
2018-05-29T19:13:53.987Z,34.96
2018-05-29T19:16:22.505Z,35.21
2018-05-29T19:18:51.056Z,35.54
2018-05-29T19:21:18.611Z,36.19
2018-05-29T19:23:47.200Z,36.22
2018-05-29T19:26:16.068Z,36.95
2018-05-29T19:28:43.662Z,36.79
2018-05-29T19:31:11.205Z,37.70
2018-05-29T19:33:39.456Z,37.38
2018-05-29T19:36:07.101Z,38.35
2018-05-29T19:38:35.199Z,38.59
2018-05-29T19:41:03.191Z,38.78
2018-05-29T19:43:30.794Z,38.64
2018-05-29T19:45:58.429Z,39.09
2018-05-29T19:48:26.008Z,39.24
2018-05-29T19:50:54.672Z,39.72
2018-05-29T19:53:23.029Z,39.46
2018-05-29T19:55:50.607Z,39.94
2018-05-29T19:58:18.172Z,40.85
2018-05-29T20:00:46.843Z,41.18
2018-05-29T20:03:14.457Z,40.92
2018-05-29T20:05:42.663Z,41.29
2018-05-29T20:08:10.849Z,41.34
2018-05-29T20:10:39.090Z,42.18
2018-05-29T20:13:06.652Z,41.98
2018-05-29T20:15:34.683Z,42.41
2018-05-29T20:18:02.497Z,43.00
2018-05-29T20:20:30.048Z,43.08
2018-05-29T20:22:58.458Z,43.67
2018-05-29T20:25:26.443Z,44.00
2018-05-29T20:27:54.224Z,44.93
2018-05-29T20:30:21.748Z,45.66
2018-05-29T20:32:50.037Z,45.22
2018-05-29T20:35:18.573Z,45.58
2018-05-29T20:37:47.175Z,46.11
2018-05-29T20:40:14.752Z,46.69
2018-05-29T20:42:42.344Z,46.56
2018-05-29T20:45:09.910Z,47.05
2018-05-29T20:47:37.455Z,47.41
2018-05-29T20:50:05.074Z,48.17
2018-05-29T20:52:33.341Z,48.12
2018-05-29T20:55:00.891Z,48.55
2018-05-29T20:57:28.447Z,49.05
2018-05-29T20:59:56.612Z,49.21
2018-05-29T21:02:24.364Z,49.12
2018-05-29T21:04:51.943Z,49.45
2018-05-29T21:07:20.090Z,49.46
2018-05-29T21:09:49.583Z,49.41
2018-05-29T21:12:17.804Z,50.66
2018-05-29T21:14:46.542Z,50.33
2018-05-29T21:17:14.080Z,50.47
2018-05-29T21:19:42.285Z,50.86
2018-05-29T21:22:09.882Z,50.54
2018-05-29T21:24:37.694Z,51.07
2018-05-29T21:27:05.656Z,51.02
2018-05-29T21:29:33.252Z,51.77
2018-05-29T21:32:00.788Z,51.91
2018-05-29T21:34:28.915Z,52.47
2018-05-29T21:36:57.017Z,52.06
2018-05-29T21:39:24.676Z,52.01
2018-05-29T21:41:52.470Z,52.64
2018-05-29T21:44:20.080Z,52.88
2018-05-29T21:46:48.087Z,52.57
2018-05-29T21:49:16.325Z,53.40
2018-05-29T21:51:44.360Z,52.78
2018-05-29T21:54:11.971Z,53.56
2018-05-29T21:56:39.608Z,53.76
2018-05-29T21:59:08.266Z,54.54
2018-05-29T22:01:35.819Z,54.49
2018-05-29T22:04:04.117Z,54.63
2018-05-29T22:06:32.910Z,55.36
2018-05-29T22:09:00.529Z,55.40
2018-05-29T22:11:28.578Z,55.44
2018-05-29T22:13:56.188Z,55.54
2018-05-29T22:16:24.799Z,55.62
2018-05-29T22:18:52.491Z,55.90
2018-05-29T22:21:20.099Z,55.82
2018-05-29T22:23:48.451Z,56.63
2018-05-29T22:26:17.122Z,56.51
2018-05-29T22:28:44.714Z,57.05
2018-05-29T22:31:12.309Z,57.11
2018-05-29T22:33:40.575Z,57.12
2018-05-29T22:36:08.288Z,57.05
2018-05-29T22:38:36.381Z,56.80
2018-05-29T22:41:03.983Z,57.26
2018-05-29T22:43:31.548Z,57.76
2018-05-29T22:46:00.339Z,58.18
2018-05-29T22:48:27.999Z,57.73
2018-05-29T22:50:56.473Z,58.62
2018-05-29T22:53:24.886Z,58.87
2018-05-29T22:55:52.544Z,59.03
2018-05-29T22:58:20.245Z,59.19
2018-05-29T23:00:48.673Z,58.86
2018-05-29T23:03:16.588Z,58.77
2018-05-29T23:05:44.744Z,58.93
2018-05-29T23:08:13.221Z,60.04
2018-05-29T23:10:41.398Z,59.36
2018-05-29T23:13:08.958Z,60.35
2018-05-29T23:15:37.135Z,60.03
2018-05-29T23:18:04.744Z,60.00
2018-05-29T23:20:32.529Z,60.88
2018-05-29T23:23:00.173Z,60.97
2018-05-29T23:25:28.745Z,61.67
2018-05-29T23:27:56.433Z,62.17
2018-05-29T23:30:24.200Z,62.17
2018-05-29T23:32:52.474Z,62.19
2018-05-29T23:35:20.050Z,61.69
2018-05-29T23:37:49.001Z,62.17
2018-05-29T23:40:17.154Z,62.15
2018-05-29T23:42:44.736Z,62.74
2018-05-29T23:45:13.013Z,62.51
2018-05-29T23:47:40.585Z,62.23
2018-05-29T23:50:08.121Z,62.48
2018-05-29T23:52:36.365Z,62.66
2018-05-29T23:55:04.337Z,62.43
2018-05-29T23:57:32.316Z,62.69
